Time,TemperatureF,DewpointF,PressureIn,WindDirection,WindDirectionDegrees,WindSpeedMPH,WindSpeedGustMPH,Humidity,HourlyPrecipIn,Conditions,Clouds,dailyrainin,SoftwareType,DateUTC
2013-07-05 00:05:00,70.5,68.7,30.12,SE,134,2.0,2.0,94,0.05,,,0.00,Wunderground v.1.13,2013-07-05 04:05:00,
2013-07-05 00:10:00,70.5,68.7,30.11,SE,134,2.0,2.0,94,0.05,,,0.00,Wunderground v.1.13,2013-07-05 04:10:00,
2013-07-05 00:15:00,70.5,68.7,30.11,SE,134,1.0,1.0,94,0.22,,,0.02,Wunderground v.1.13,2013-07-05 04:15:00,
2013-07-05 00:20:00,70.4,68.6,30.11,SE,134,0.0,0.0,94,0.08,,,0.02,Wunderground v.1.13,2013-07-05 04:20:00,
2013-07-05 00:30:00,70.2,68.4,30.10,SE,134,0.0,0.0,94,0.07,,,0.03,Wunderground v.1.13,2013-07-05 04:30:00,
2013-07-05 00:40:00,70.1,68.6,30.11,ESE,108,1.0,6.0,95,0.04,,,0.04,Wunderground v.1.13,2013-07-05 04:40:00,
2013-07-05 00:50:00,69.9,68.4,30.10,ENE,77,2.0,2.0,95,0.08,,,0.05,Wunderground v.1.13,2013-07-05 04:50:00,
2013-07-05 00:55:00,69.9,68.4,30.11,ENE,77,1.0,1.0,95,0.30,,,0.07,Wunderground v.1.13,2013-07-05 04:55:00,
2013-07-05 01:00:00,69.9,68.4,30.10,ENE,77,0.0,0.0,95,0.11,,,0.08,Wunderground v.1.13,2013-07-05 05:00:00,
2013-07-05 01:10:00,69.9,68.4,30.09,North,360,0.0,2.0,95,0.09,,,0.09,Wunderground v.1.13,2013-07-05 05:10:00,
2013-07-05 01:15:00,69.8,68.3,30.10,NNW,341,1.0,1.0,95,0.07,,,0.10,Wunderground v.1.13,2013-07-05 05:15:00,
2013-07-05 01:25:00,69.9,68.7,30.13,SSW,204,2.0,7.0,96,0.06,,,0.11,Wunderground v.1.13,2013-07-05 05:25:00,
2013-07-05 01:30:00,69.9,68.4,30.12,SSW,207,4.0,4.0,95,1.48,,,0.29,Wunderground v.1.13,2013-07-05 05:30:00,
2013-07-05 01:35:00,69.8,68.3,30.12,SSW,207,2.0,2.0,95,0.79,,,0.37,Wunderground v.1.13,2013-07-05 05:35:00,
2013-07-05 01:45:00,69.7,68.5,30.12,South,171,0.0,0.0,96,0.17,,,0.42,Wunderground v.1.13,2013-07-05 05:45:00,
2013-07-05 01:55:00,69.7,68.5,30.12,South,171,1.0,4.0,96,0.15,,,0.44,Wunderground v.1.13,2013-07-05 05:55:00,
2013-07-05 02:05:00,69.6,68.4,30.11,SSE,166,1.0,1.0,96,0.04,,,0.44,Wunderground v.1.13,2013-07-05 06:05:00,
2013-07-05 02:10:00,69.6,68.4,30.11,SSE,166,0.0,0.0,96,0.00,,,0.44,Wunderground v.1.13,2013-07-05 06:10:00,
2013-07-05 02:15:00,69.5,68.3,30.11,SE,130,0.0,0.0,96,0.00,,,0.44,Wunderground v.1.13,2013-07-05 06:15:00,
2013-07-05 02:25:00,69.5,68.3,30.10,ESE,112,0.0,0.0,96,0.00,,,0.44,Wunderground v.1.13,2013-07-05 06:25:00,
2013-07-05 02:35:00,69.3,68.1,30.10,ESE,116,1.0,1.0,96,0.00,,,0.44,Wunderground v.1.13,2013-07-05 06:35:00,
2013-07-05 02:40:00,69.0,67.8,30.10,SE,134,3.0,4.0,96,0.00,,,0.44,Wunderground v.1.13,2013-07-05 06:40:00,
2013-07-05 02:50:00,68.7,67.2,30.10,SE,135,4.0,4.0,95,0.00,,,0.44,Wunderground v.1.13,2013-07-05 06:50:00,
2013-07-05 03:00:00,68.8,67.3,30.10,SE,135,2.0,2.0,95,0.00,,,0.44,Wunderground v.1.13,2013-07-05 07:00:00,
2013-07-05 03:10:00,68.8,67.3,30.10,SE,128,2.0,2.0,95,0.00,,,0.44,Wunderground v.1.13,2013-07-05 07:10:00,
2013-07-05 03:15:00,68.6,67.1,30.10,SE,128,2.0,2.0,95,0.00,,,0.44,Wunderground v.1.13,2013-07-05 07:15:00,
2013-07-05 03:25:00,68.5,67.0,30.09,SE,128,0.0,0.0,95,0.00,,,0.44,Wunderground v.1.13,2013-07-05 07:25:00,
2013-07-05 03:35:00,68.5,67.0,30.09,SE,128,1.0,4.0,95,0.00,,,0.44,Wunderground v.1.13,2013-07-05 07:35:00,
2013-07-05 03:45:00,68.6,67.1,30.10,SE,125,5.0,5.0,95,0.00,,,0.44,Wunderground v.1.13,2013-07-05 07:45:00,
2013-07-05 03:50:00,68.6,67.1,30.10,SE,136,5.0,6.0,95,0.00,,,0.44,Wunderground v.1.13,2013-07-05 07:50:00,
2013-07-05 03:55:00,68.6,67.1,30.09,SE,124,5.0,5.0,95,0.00,,,0.44,Wunderground v.1.13,2013-07-05 07:55:00,
2013-07-05 04:00:00,68.5,67.0,30.09,SE,124,4.0,4.0,95,0.00,,,0.44,Wunderground v.1.13,2013-07-05 08:00:00,
2013-07-05 04:10:00,68.4,66.9,30.10,SE,141,4.0,5.0,95,0.00,,,0.44,Wunderground v.1.13,2013-07-05 08:10:00,
2013-07-05 04:20:00,68.3,66.8,30.10,SSE,149,6.0,6.0,95,0.00,,,0.44,Wunderground v.1.13,2013-07-05 08:20:00,
2013-07-05 04:30:00,68.2,66.7,30.10,SE,138,5.0,5.0,95,0.00,,,0.44,Wunderground v.1.13,2013-07-05 08:30:00,
2013-07-05 04:40:00,68.0,66.2,30.10,SSE,148,3.0,4.0,94,0.00,,,0.44,Wunderground v.1.13,2013-07-05 08:40:00,
2013-07-05 04:50:00,67.9,66.4,30.10,SE,134,3.0,5.0,95,0.00,,,0.45,Wunderground v.1.13,2013-07-05 08:50:00,
2013-07-05 05:05:00,67.8,66.3,30.11,SSE,147,1.0,1.0,95,0.00,,,0.45,Wunderground v.1.13,2013-07-05 09:05:00,
2013-07-05 05:15:00,67.7,66.2,30.11,SSE,151,4.0,6.0,95,0.00,,,0.45,Wunderground v.1.13,2013-07-05 09:15:00,
2013-07-05 05:20:00,67.7,66.2,30.11,South,176,4.0,4.0,95,0.00,,,0.45,Wunderground v.1.13,2013-07-05 09:20:00,
2013-07-05 05:30:00,67.7,66.2,30.11,SSE,163,3.0,3.0,95,0.00,,,0.45,Wunderground v.1.13,2013-07-05 09:30:00,
2013-07-05 05:40:00,67.6,66.1,30.11,SSE,163,2.0,2.0,95,0.00,,,0.45,Wunderground v.1.13,2013-07-05 09:40:00,
2013-07-05 05:55:00,67.6,66.1,30.11,SSE,163,1.0,1.0,95,0.00,,,0.45,Wunderground v.1.13,2013-07-05 09:55:00,
2013-07-05 06:10:00,67.5,66.0,30.12,SSE,163,0.0,0.0,95,0.00,,,0.45,Wunderground v.1.13,2013-07-05 10:10:00,
2013-07-05 06:20:00,67.6,66.4,30.12,SSE,163,0.0,0.0,96,0.00,,,0.45,Wunderground v.1.13,2013-07-05 10:20:00,
2013-07-05 06:30:00,67.7,66.5,30.12,SSE,163,0.0,2.0,96,0.00,,,0.45,Wunderground v.1.13,2013-07-05 10:30:00,
2013-07-05 06:40:00,67.7,66.5,30.13,SSE,163,1.0,4.0,96,0.00,,,0.45,Wunderground v.1.13,2013-07-05 10:40:00,
2013-07-05 06:50:00,67.7,66.5,30.13,SSE,163,1.0,1.0,96,0.00,,,0.45,Wunderground v.1.13,2013-07-05 10:50:00,
2013-07-05 07:00:00,67.6,66.4,30.13,SSE,163,0.0,1.0,96,0.09,,,0.48,Wunderground v.1.13,2013-07-05 11:00:00,
2013-07-05 07:10:00,67.6,66.4,30.12,SSE,163,1.0,1.0,96,0.10,,,0.49,Wunderground v.1.13,2013-07-05 11:10:00,
2013-07-05 07:25:00,67.6,66.4,30.12,SE,140,1.0,1.0,96,0.04,,,0.50,Wunderground v.1.13,2013-07-05 11:25:00,
2013-07-05 07:30:00,67.7,66.5,30.12,SE,140,1.0,2.0,96,0.00,,,0.50,Wunderground v.1.13,2013-07-05 11:30:00,
2013-07-05 07:40:00,67.7,66.5,30.12,SE,140,1.0,5.0,96,0.00,,,0.51,Wunderground v.1.13,2013-07-05 11:40:00,
2013-07-05 07:45:00,67.7,66.5,30.13,SE,140,2.0,4.0,96,0.00,,,0.51,Wunderground v.1.13,2013-07-05 11:45:00,
2013-07-05 07:55:00,67.7,66.5,30.13,SE,140,3.0,4.0,96,0.00,,,0.51,Wunderground v.1.13,2013-07-05 11:55:00,
2013-07-05 08:05:00,67.8,66.6,30.13,SE,142,3.0,4.0,96,0.00,,,0.51,Wunderground v.1.13,2013-07-05 12:05:00,
2013-07-05 08:10:00,67.9,66.7,30.13,SE,142,4.0,4.0,96,0.00,,,0.51,Wunderground v.1.13,2013-07-05 12:10:00,
2013-07-05 08:20:00,67.7,66.5,30.13,SSE,160,4.0,4.0,96,0.00,,,0.51,Wunderground v.1.13,2013-07-05 12:20:00,
2013-07-05 08:25:00,67.7,66.5,30.14,SSE,160,4.0,4.0,96,0.00,,,0.51,Wunderground v.1.13,2013-07-05 12:25:00,
2013-07-05 08:30:00,67.7,66.5,30.14,SE,140,4.0,6.0,96,0.00,,,0.51,Wunderground v.1.13,2013-07-05 12:30:00,
2013-07-05 08:40:00,67.4,65.9,30.14,SSE,162,6.0,6.0,95,0.00,,,0.52,Wunderground v.1.13,2013-07-05 12:40:00,
2013-07-05 08:50:00,67.4,66.2,30.14,SSE,161,2.0,4.0,96,0.09,,,0.53,Wunderground v.1.13,2013-07-05 12:50:00,
2013-07-05 09:00:00,67.3,66.1,30.14,ESE,121,2.0,2.0,96,0.04,,,0.53,Wunderground v.1.13,2013-07-05 13:00:00,
2013-07-05 09:05:00,67.2,66.0,30.14,ESE,121,1.0,1.0,96,0.00,,,0.53,Wunderground v.1.13,2013-07-05 13:05:00,
2013-07-05 09:15:00,67.2,66.0,30.15,ESE,121,1.0,1.0,96,0.00,,,0.54,Wunderground v.1.13,2013-07-05 13:15:00,
2013-07-05 09:25:00,67.3,66.1,30.16,SSW,209,2.0,2.0,96,0.22,,,0.56,Wunderground v.1.13,2013-07-05 13:25:00,
2013-07-05 09:35:00,67.3,66.1,30.15,SSE,166,2.0,2.0,96,0.22,,,0.65,Wunderground v.1.13,2013-07-05 13:35:00,
2013-07-05 09:40:00,67.2,66.0,30.15,SSE,166,0.0,0.0,96,0.12,,,0.66,Wunderground v.1.13,2013-07-05 13:40:00,
2013-07-05 09:55:00,67.3,66.1,30.15,SSE,165,2.0,5.0,96,0.00,,,0.66,Wunderground v.1.13,2013-07-05 13:55:00,
2013-07-05 10:05:00,67.6,66.4,30.15,SSE,155,5.0,5.0,96,0.00,,,0.66,Wunderground v.1.13,2013-07-05 14:05:00,
2013-07-05 10:15:00,67.6,66.4,30.15,SE,128,5.0,5.0,96,0.00,,,0.66,Wunderground v.1.13,2013-07-05 14:15:00,
2013-07-05 10:25:00,67.8,66.6,30.16,SE,137,5.0,5.0,96,0.00,,,0.66,Wunderground v.1.13,2013-07-05 14:25:00,
2013-07-05 10:30:00,67.8,66.6,30.15,SSE,168,5.0,5.0,96,0.00,,,0.66,Wunderground v.1.13,2013-07-05 14:30:00,
2013-07-05 10:35:00,67.9,66.7,30.15,SSE,167,4.0,4.0,96,0.00,,,0.66,Wunderground v.1.13,2013-07-05 14:35:00,
2013-07-05 10:45:00,67.9,66.4,30.15,SE,142,4.0,4.0,95,0.00,,,0.66,Wunderground v.1.13,2013-07-05 14:45:00,
2013-07-05 10:55:00,68.0,66.5,30.16,SE,142,3.0,4.0,95,0.00,,,0.66,Wunderground v.1.13,2013-07-05 14:55:00,
2013-07-05 11:00:00,68.3,66.8,30.16,SE,142,3.0,3.0,95,0.00,,,0.66,Wunderground v.1.13,2013-07-05 15:00:00,
2013-07-05 11:10:00,68.3,66.5,30.16,SE,142,1.0,2.0,94,0.00,,,0.66,Wunderground v.1.13,2013-07-05 15:10:00,
2013-07-05 11:20:00,68.4,66.6,30.16,SE,142,1.0,2.0,94,0.00,,,0.66,Wunderground v.1.13,2013-07-05 15:20:00,
2013-07-05 11:30:00,68.4,66.6,30.16,SE,142,1.0,1.0,94,0.00,,,0.67,Wunderground v.1.13,2013-07-05 15:30:00,
2013-07-05 11:35:00,68.5,67.0,30.16,SE,142,1.0,1.0,95,0.00,,,0.67,Wunderground v.1.13,2013-07-05 15:35:00,
2013-07-05 11:40:00,68.7,67.2,30.16,SE,142,1.0,1.0,95,0.00,,,0.67,Wunderground v.1.13,2013-07-05 15:40:00,
2013-07-05 11:50:00,69.0,67.5,30.16,SE,142,4.0,6.0,95,0.00,,,0.67,Wunderground v.1.13,2013-07-05 15:50:00,
2013-07-05 11:55:00,69.3,67.8,30.16,SSE,153,4.0,7.0,95,0.00,,,0.67,Wunderground v.1.13,2013-07-05 15:55:00,
2013-07-05 12:05:00,69.6,68.1,30.16,ESE,115,6.0,6.0,95,0.00,,,0.67,Wunderground v.1.13,2013-07-05 16:05:00,
2013-07-05 12:10:00,69.8,68.0,30.15,SE,146,1.0,1.0,94,0.00,,,0.67,Wunderground v.1.13,2013-07-05 16:10:00,
2013-07-05 12:15:00,70.0,68.2,30.16,SE,145,4.0,4.0,94,0.00,,,0.67,Wunderground v.1.13,2013-07-05 16:15:00,
2013-07-05 12:25:00,70.5,68.4,30.15,SSE,164,4.0,4.0,93,0.00,,,0.67,Wunderground v.1.13,2013-07-05 16:25:00,
2013-07-05 12:35:00,71.2,68.8,30.15,SSE,158,4.0,4.0,92,0.00,,,0.67,Wunderground v.1.13,2013-07-05 16:35:00,
2013-07-05 12:45:00,71.6,68.8,30.15,SSE,161,4.0,6.0,91,0.00,,,0.67,Wunderground v.1.13,2013-07-05 16:45:00,
2013-07-05 12:50:00,71.9,68.8,30.15,SSE,162,4.0,4.0,90,0.00,,,0.67,Wunderground v.1.13,2013-07-05 16:50:00,
2013-07-05 13:00:00,72.4,69.0,30.15,SE,132,6.0,6.0,89,0.00,,,0.67,Wunderground v.1.13,2013-07-05 17:00:00,
2013-07-05 13:10:00,72.7,68.9,30.14,SE,144,5.0,10.0,88,0.00,,,0.67,Wunderground v.1.13,2013-07-05 17:10:00,
2013-07-05 13:20:00,73.2,68.4,30.14,South,178,5.0,5.0,85,0.00,,,0.67,Wunderground v.1.13,2013-07-05 17:20:00,
2013-07-05 13:30:00,73.4,69.0,30.14,SE,144,6.0,6.0,86,0.00,,,0.67,Wunderground v.1.13,2013-07-05 17:30:00,
2013-07-05 13:40:00,73.5,69.1,30.13,SSE,153,5.0,5.0,86,0.00,,,0.67,Wunderground v.1.13,2013-07-05 17:40:00,
2013-07-05 13:50:00,73.5,68.7,30.13,South,190,4.0,4.0,85,0.00,,,0.67,Wunderground v.1.13,2013-07-05 17:50:00,
2013-07-05 14:00:00,73.8,68.7,30.13,SSW,198,3.0,3.0,84,0.00,,,0.67,Wunderground v.1.13,2013-07-05 18:00:00,
2013-07-05 14:10:00,74.2,68.7,30.14,South,171,4.0,6.0,83,0.00,,,0.67,Wunderground v.1.13,2013-07-05 18:10:00,
2013-07-05 14:20:00,74.3,68.8,30.14,SSW,205,3.0,3.0,83,0.00,,,0.67,Wunderground v.1.13,2013-07-05 18:20:00,
2013-07-05 14:30:00,74.8,69.6,30.14,West,268,2.0,2.0,84,0.00,,,0.67,Wunderground v.1.13,2013-07-05 18:30:00,
2013-07-05 14:35:00,75.2,69.7,30.14,WNW,293,2.0,5.0,83,0.00,,,0.67,Wunderground v.1.13,2013-07-05 18:35:00,
2013-07-05 14:45:00,75.1,68.9,30.14,WNW,303,2.0,4.0,81,0.00,,,0.67,Wunderground v.1.13,2013-07-05 18:45:00,
2013-07-05 14:55:00,75.3,68.7,30.14,SSW,213,3.0,3.0,80,0.00,,,0.67,Wunderground v.1.13,2013-07-05 18:55:00,
2013-07-05 15:05:00,75.8,69.6,30.13,West,267,4.0,4.0,81,0.00,,,0.67,Wunderground v.1.13,2013-07-05 19:05:00,
2013-07-05 15:10:00,75.8,68.8,30.13,WNW,296,4.0,4.0,79,0.00,,,0.67,Wunderground v.1.13,2013-07-05 19:10:00,
2013-07-05 15:20:00,76.5,69.5,30.13,SSW,196,3.0,4.0,79,0.00,,,0.67,Wunderground v.1.13,2013-07-05 19:20:00,
2013-07-05 15:30:00,76.7,69.3,30.13,West,270,3.0,3.0,78,0.00,,,0.67,Wunderground v.1.13,2013-07-05 19:30:00,
2013-07-05 15:35:00,76.9,69.5,30.13,SSE,148,4.0,4.0,78,0.00,,,0.67,Wunderground v.1.13,2013-07-05 19:35:00,
2013-07-05 15:45:00,77.1,69.7,30.12,South,172,3.0,4.0,78,0.00,,,0.67,Wunderground v.1.13,2013-07-05 19:45:00,
2013-07-05 15:50:00,77.3,69.5,30.12,WSW,241,1.0,1.0,77,0.00,,,0.67,Wunderground v.1.13,2013-07-05 19:50:00,
2013-07-05 16:00:00,77.3,69.1,30.11,WNW,286,3.0,3.0,76,0.00,,,0.67,Wunderground v.1.13,2013-07-05 20:00:00,
2013-07-05 16:05:00,77.2,69.4,30.11,WSW,239,2.0,2.0,77,0.00,,,0.67,Wunderground v.1.13,2013-07-05 20:05:00,
2013-07-05 16:15:00,76.9,69.1,30.10,SE,146,2.0,2.0,77,0.00,,,0.67,Wunderground v.1.13,2013-07-05 20:15:00,
2013-07-05 16:20:00,76.7,68.9,30.10,SE,140,3.0,5.0,77,0.00,,,0.67,Wunderground v.1.13,2013-07-05 20:20:00,
2013-07-05 16:25:00,76.5,69.1,30.09,SE,140,3.0,3.0,78,0.00,,,0.67,Wunderground v.1.13,2013-07-05 20:25:00,
2013-07-05 16:35:00,76.7,68.9,30.09,SSE,152,3.0,6.0,77,0.00,,,0.67,Wunderground v.1.13,2013-07-05 20:35:00,
2013-07-05 16:40:00,76.6,68.8,30.09,SSE,152,3.0,3.0,77,0.00,,,0.67,Wunderground v.1.13,2013-07-05 20:40:00,
2013-07-05 16:50:00,76.8,69.4,30.09,SSE,152,1.0,1.0,78,0.00,,,0.67,Wunderground v.1.13,2013-07-05 20:50:00,
2013-07-05 16:55:00,77.0,69.2,30.09,SSE,160,2.0,4.0,77,0.00,,,0.67,Wunderground v.1.13,2013-07-05 20:55:00,
2013-07-05 17:05:00,77.2,69.4,30.10,South,175,4.0,6.0,77,0.00,,,0.67,Wunderground v.1.13,2013-07-05 21:05:00,
2013-07-05 17:10:00,77.3,69.9,30.10,SSW,213,4.0,5.0,78,0.00,,,0.67,Wunderground v.1.13,2013-07-05 21:10:00,
2013-07-05 17:20:00,77.0,69.6,30.10,South,180,4.0,6.0,78,0.00,,,0.67,Wunderground v.1.13,2013-07-05 21:20:00,
2013-07-05 17:25:00,77.1,69.7,30.11,SSW,202,4.0,4.0,78,0.00,,,0.67,Wunderground v.1.13,2013-07-05 21:25:00,
2013-07-05 17:35:00,77.3,70.3,30.11,SSE,157,4.0,8.0,79,0.00,,,0.67,Wunderground v.1.13,2013-07-05 21:35:00,
2013-07-05 17:45:00,77.3,70.3,30.11,South,173,4.0,4.0,79,0.00,,,0.67,Wunderground v.1.13,2013-07-05 21:45:00,
2013-07-05 17:55:00,77.3,70.3,30.11,South,189,3.0,3.0,79,0.00,,,0.67,Wunderground v.1.13,2013-07-05 21:55:00,
2013-07-05 18:05:00,77.4,70.0,30.11,SSW,209,5.0,5.0,78,0.00,,,0.67,Wunderground v.1.13,2013-07-05 22:05:00,
2013-07-05 18:15:00,77.3,70.3,30.11,South,177,4.0,4.0,79,0.00,,,0.67,Wunderground v.1.13,2013-07-05 22:15:00,
2013-07-05 18:25:00,76.6,70.7,30.10,SSE,167,2.0,5.0,82,0.00,,,0.67,Wunderground v.1.13,2013-07-05 22:25:00,
2013-07-05 18:35:00,75.9,70.4,30.10,SW,217,3.0,4.0,83,0.00,,,0.67,Wunderground v.1.13,2013-07-05 22:35:00,
2013-07-05 18:40:00,75.7,70.2,30.09,West,263,2.0,2.0,83,0.00,,,0.67,Wunderground v.1.13,2013-07-05 22:40:00,
2013-07-05 18:50:00,75.6,70.1,30.09,WNW,298,1.0,1.0,83,0.00,,,0.67,Wunderground v.1.13,2013-07-05 22:50:00,
2013-07-05 19:00:00,75.6,70.4,30.09,WNW,298,0.0,0.0,84,0.00,,,0.67,Wunderground v.1.13,2013-07-05 23:00:00,
2013-07-05 19:10:00,75.5,69.6,30.10,WNW,298,0.0,0.0,82,0.00,,,0.67,Wunderground v.1.13,2013-07-05 23:10:00,
2013-07-05 19:20:00,75.3,69.4,30.10,WNW,297,0.0,0.0,82,0.00,,,0.67,Wunderground v.1.13,2013-07-05 23:20:00,
2013-07-05 19:30:00,75.3,69.8,30.10,WNW,296,0.0,0.0,83,0.00,,,0.67,Wunderground v.1.13,2013-07-05 23:30:00,
2013-07-05 19:40:00,75.3,69.8,30.11,SSW,211,0.0,0.0,83,0.00,,,0.67,Wunderground v.1.13,2013-07-05 23:40:00,
2013-07-05 19:50:00,75.3,70.1,30.11,SSW,211,0.0,0.0,84,0.00,,,0.67,Wunderground v.1.13,2013-07-05 23:50:00,
2013-07-05 20:00:00,75.1,69.9,30.11,SSW,211,0.0,4.0,84,0.00,,,0.67,Wunderground v.1.13,2013-07-06 00:00:00,
2013-07-05 20:05:00,74.9,70.1,30.11,South,180,1.0,3.0,85,0.00,,,0.67,Wunderground v.1.13,2013-07-06 00:05:00,
2013-07-05 20:10:00,74.8,70.0,30.11,South,170,2.0,2.0,85,0.00,,,0.67,Wunderground v.1.13,2013-07-06 00:10:00,
2013-07-05 20:20:00,74.4,69.9,30.12,South,170,2.0,2.0,86,0.00,,,0.67,Wunderground v.1.13,2013-07-06 00:20:00,
2013-07-05 20:30:00,74.3,69.8,30.12,South,170,0.0,0.0,86,0.00,,,0.67,Wunderground v.1.13,2013-07-06 00:30:00,
2013-07-05 20:35:00,74.3,70.2,30.12,South,170,0.0,0.0,87,0.00,,,0.67,Wunderground v.1.13,2013-07-06 00:35:00,
2013-07-05 20:45:00,74.2,70.1,30.12,South,170,0.0,0.0,87,0.00,,,0.67,Wunderground v.1.13,2013-07-06 00:45:00,
2013-07-05 20:55:00,74.1,70.0,30.11,SSE,164,0.0,0.0,87,0.00,,,0.67,Wunderground v.1.13,2013-07-06 00:55:00,
2013-07-05 21:05:00,73.9,69.4,30.11,SSE,163,3.0,3.0,86,0.00,,,0.67,Wunderground v.1.13,2013-07-06 01:05:00,
2013-07-05 21:15:00,73.7,68.9,30.11,SSE,163,1.0,1.0,85,0.00,,,0.67,Wunderground v.1.13,2013-07-06 01:15:00,
2013-07-05 21:25:00,73.5,69.1,30.11,SSE,163,0.0,0.0,86,0.00,,,0.67,Wunderground v.1.13,2013-07-06 01:25:00,
2013-07-05 21:35:00,73.3,69.2,30.11,SSE,163,0.0,0.0,87,0.00,,,0.67,Wunderground v.1.13,2013-07-06 01:35:00,
2013-07-05 21:45:00,73.1,69.0,30.11,SSE,163,0.0,0.0,87,0.00,,,0.67,Wunderground v.1.13,2013-07-06 01:45:00,
2013-07-05 21:55:00,72.8,68.7,30.11,SSE,163,0.0,0.0,87,0.00,,,0.67,Wunderground v.1.13,2013-07-06 01:55:00,
2013-07-05 22:05:00,72.5,68.7,30.11,SSE,163,0.0,0.0,88,0.00,,,0.67,Wunderground v.1.13,2013-07-06 02:05:00,
2013-07-05 22:15:00,72.2,68.4,30.12,SSE,163,0.0,0.0,88,0.00,,,0.67,Wunderground v.1.13,2013-07-06 02:15:00,
2013-07-05 22:25:00,71.8,68.4,30.12,SSE,163,0.0,0.0,89,0.00,,,0.67,Wunderground v.1.13,2013-07-06 02:25:00,
2013-07-05 22:35:00,71.3,68.2,30.12,SSE,163,0.0,0.0,90,0.00,,,0.67,Wunderground v.1.13,2013-07-06 02:35:00,
2013-07-05 22:45:00,71.0,68.2,30.13,SSE,163,0.0,0.0,91,0.00,,,0.67,Wunderground v.1.13,2013-07-06 02:45:00,
2013-07-05 22:55:00,70.7,68.3,30.13,SSE,163,0.0,0.0,92,0.00,,,0.67,Wunderground v.1.13,2013-07-06 02:55:00,
2013-07-05 23:00:00,70.6,68.2,30.13,SSE,163,0.0,0.0,92,0.00,,,0.67,Wunderground v.1.13,2013-07-06 03:00:00,
2013-07-05 23:10:00,70.5,68.1,30.13,SSE,163,0.0,0.0,92,0.00,,,0.67,Wunderground v.1.13,2013-07-06 03:10:00,
2013-07-05 23:20:00,70.3,67.9,30.13,SSE,163,0.0,0.0,92,0.00,,,0.67,Wunderground v.1.13,2013-07-06 03:20:00,
2013-07-05 23:30:00,70.2,68.1,30.13,SSE,163,0.0,0.0,93,0.00,,,0.67,Wunderground v.1.13,2013-07-06 03:30:00,
2013-07-05 23:40:00,70.3,68.5,30.13,SSE,163,0.0,0.0,94,0.00,,,0.67,Wunderground v.1.13,2013-07-06 03:40:00,
2013-07-05 23:50:00,70.4,68.3,30.14,SSE,163,0.0,0.0,93,0.00,,,0.67,Wunderground v.1.13,2013-07-06 03:50:00,